createdAt,value
2023-05-13T00:01:14.559Z,11.83
2023-05-13T00:02:46.375Z,11.10
2023-05-13T00:04:18.270Z,13.93
2023-05-13T00:05:49.953Z,18.13
2023-05-13T00:07:21.658Z,16.73
2023-05-13T00:08:53.281Z,11.50
2023-05-13T00:10:24.975Z,12.30
2023-05-13T00:11:56.775Z,10.37
2023-05-13T00:13:28.477Z,15.83
2023-05-13T00:15:00.291Z,11.30
2023-05-13T00:16:31.997Z,11.43
2023-05-13T00:18:03.890Z,12.03
2023-05-13T00:19:35.730Z,15.83
2023-05-13T00:21:07.645Z,11.37
2023-05-13T00:22:39.288Z,10.43
2023-05-13T00:24:11.311Z,16.10
2023-05-13T00:25:44.457Z,10.60
2023-05-13T00:27:16.089Z,12.43
2023-05-13T00:28:47.839Z,15.43
2023-05-13T00:30:20.919Z,10.60
2023-05-13T00:31:52.840Z,13.50
2023-05-13T00:33:24.655Z,9.87
2023-05-13T00:34:56.305Z,25.80
2023-05-13T00:36:28.713Z,9.73
2023-05-13T00:38:00.401Z,13.93
2023-05-13T00:39:32.070Z,11.53
2023-05-13T00:41:04.141Z,14.43
2023-05-13T00:42:35.808Z,10.67
2023-05-13T00:44:07.540Z,11.47
2023-05-13T00:45:39.237Z,10.37
2023-05-13T00:47:11.957Z,12.27
2023-05-13T00:48:44.049Z,11.70
2023-05-13T00:50:15.823Z,9.90
2023-05-13T00:51:47.558Z,10.87
2023-05-13T00:53:19.360Z,10.90
2023-05-13T00:54:51.092Z,17.33
2023-05-13T00:56:22.832Z,12.83
2023-05-13T00:57:54.619Z,10.03
2023-05-13T00:59:29.578Z,10.90
2023-05-13T01:01:17.167Z,12.90
2023-05-13T01:03:06.395Z,11.37
2023-05-13T01:04:44.578Z,11.93
2023-05-13T01:06:33.210Z,10.67
2023-05-13T01:08:35.018Z,9.20
2023-05-13T01:10:09.926Z,9.90
2023-05-13T01:11:42.456Z,14.10
2023-05-13T01:13:18.184Z,11.63
2023-05-13T01:14:59.250Z,14.23
2023-05-13T01:16:39.432Z,10.70
2023-05-13T01:18:15.486Z,11.57
2023-05-13T01:19:52.500Z,13.20
2023-05-13T01:21:26.640Z,14.20
2023-05-13T01:22:58.368Z,9.07
2023-05-13T01:24:30.098Z,9.60
2023-05-13T01:26:01.816Z,10.80
2023-05-13T01:27:34.842Z,9.90
2023-05-13T01:29:07.265Z,9.23
2023-05-13T01:30:39.941Z,11.53
2023-05-13T01:32:13.689Z,11.37
2023-05-13T01:33:45.799Z,9.80
2023-05-13T01:35:18.227Z,11.67
2023-05-13T01:36:51.228Z,9.17
2023-05-13T01:38:26.723Z,15.70
2023-05-13T01:40:01.177Z,10.07
2023-05-13T01:41:35.047Z,12.13
2023-05-13T01:43:07.172Z,14.53
2023-05-13T01:44:40.440Z,14.50
2023-05-13T01:46:13.281Z,9.37
2023-05-13T01:47:45.061Z,9.70
2023-05-13T01:49:17.192Z,13.40
2023-05-13T01:50:50.614Z,14.17
2023-05-13T01:52:22.396Z,9.60
2023-05-13T01:53:54.033Z,11.67
2023-05-13T01:55:25.773Z,12.43
2023-05-13T01:56:57.524Z,15.50
2023-05-13T01:58:29.209Z,15.63
2023-05-13T02:00:00.925Z,12.00
2023-05-13T02:01:32.676Z,15.03
2023-05-13T02:03:04.444Z,14.37
2023-05-13T02:04:36.330Z,13.80
2023-05-13T02:06:08.157Z,14.90
2023-05-13T02:07:39.844Z,15.67
2023-05-13T02:09:11.529Z,16.13
2023-05-13T02:10:44.671Z,15.77
2023-05-13T02:12:16.563Z,14.00
2023-05-13T02:13:48.354Z,11.10
2023-05-13T02:15:20.337Z,11.20
2023-05-13T02:16:52.087Z,13.03
2023-05-13T02:18:24.119Z,13.90
2023-05-13T02:19:55.844Z,14.00
2023-05-13T02:21:27.565Z,15.27
2023-05-13T02:22:59.229Z,11.80
2023-05-13T02:24:31.132Z,11.60
2023-05-13T02:26:03.513Z,12.23
2023-05-13T02:27:35.246Z,9.43
2023-05-13T02:29:08.212Z,11.90
2023-05-13T02:30:40.061Z,12.10
2023-05-13T02:32:12.000Z,10.93
2023-05-13T02:33:43.870Z,12.87
2023-05-13T02:35:15.890Z,9.63
2023-05-13T02:36:48.538Z,14.23
2023-05-13T02:38:20.225Z,19.47
2023-05-13T02:39:52.029Z,13.93
2023-05-13T02:41:24.227Z,14.00
2023-05-13T02:42:56.081Z,15.20
2023-05-13T02:44:36.270Z,16.47
2023-05-13T02:46:07.930Z,13.13
2023-05-13T02:47:43.809Z,13.40
2023-05-13T02:49:16.233Z,13.73
2023-05-13T02:50:48.004Z,11.23
2023-05-13T02:52:19.643Z,8.80
2023-05-13T02:53:51.893Z,10.73
2023-05-13T02:55:23.911Z,12.93
2023-05-13T02:56:55.677Z,9.93
2023-05-13T02:58:27.397Z,8.47
2023-05-13T02:59:59.710Z,7.53
2023-05-13T03:01:31.501Z,10.23
2023-05-13T03:03:03.379Z,7.80
2023-05-13T03:04:35.190Z,7.67
2023-05-13T03:06:07.189Z,9.63
2023-05-13T03:07:38.883Z,12.80
2023-05-13T03:09:10.825Z,9.83
2023-05-13T03:10:42.526Z,13.00
2023-05-13T03:12:14.738Z,12.63
2023-05-13T03:13:46.517Z,16.00
2023-05-13T03:15:19.198Z,11.87
2023-05-13T03:16:50.825Z,8.90
2023-05-13T03:18:22.621Z,10.00
2023-05-13T03:19:54.377Z,20.63
2023-05-13T03:21:26.152Z,10.60
2023-05-13T03:22:57.844Z,16.17
2023-05-13T03:24:29.588Z,22.60
2023-05-13T03:26:02.061Z,18.93
2023-05-13T03:27:33.978Z,14.37
2023-05-13T03:29:05.893Z,15.10
2023-05-13T03:30:38.057Z,15.07
2023-05-13T03:32:15.300Z,9.30
2023-05-13T03:33:47.115Z,13.17
2023-05-13T03:35:18.856Z,18.43
2023-05-13T03:36:50.713Z,20.23
2023-05-13T03:38:22.463Z,50.10
2023-05-13T03:39:55.588Z,136.47
2023-05-13T03:41:28.145Z,217.80
2023-05-13T03:43:02.264Z,173.20
2023-05-13T03:44:35.194Z,110.53
2023-05-13T03:46:06.898Z,104.43
2023-05-13T03:47:39.351Z,65.63
2023-05-13T03:49:14.673Z,58.47
2023-05-13T03:50:46.360Z,118.53
2023-05-13T03:52:19.347Z,144.27
2023-05-13T03:53:53.256Z,163.23
2023-05-13T03:55:25.003Z,151.63
2023-05-13T03:56:56.631Z,185.80
2023-05-13T03:58:28.534Z,172.40
2023-05-13T04:00:00.244Z,167.73
2023-05-13T04:01:31.963Z,153.13
2023-05-13T04:03:04.361Z,136.00
2023-05-13T04:04:36.140Z,110.93
2023-05-13T04:06:07.894Z,127.53
2023-05-13T04:07:40.691Z,105.27
2023-05-13T04:09:12.337Z,74.73
2023-05-13T04:10:44.176Z,63.70
2023-05-13T04:12:18.024Z,41.17
2023-05-13T04:13:50.340Z,32.47
2023-05-13T04:15:22.246Z,30.70
2023-05-13T04:16:53.963Z,22.43
2023-05-13T04:18:25.718Z,19.17
2023-05-13T04:19:57.365Z,21.10
2023-05-13T04:21:29.097Z,26.70
2023-05-13T04:23:01.581Z,26.30
2023-05-13T04:24:34.255Z,20.90
2023-05-13T04:26:06.080Z,21.93
2023-05-13T04:27:37.804Z,21.60
2023-05-13T04:29:17.883Z,19.30
2023-05-13T04:30:49.829Z,16.50
2023-05-13T04:32:22.010Z,15.80
2023-05-13T04:33:57.021Z,15.60
2023-05-13T04:35:29.989Z,14.93
2023-05-13T04:37:04.435Z,14.07
2023-05-13T04:38:36.130Z,12.90
2023-05-13T04:40:09.054Z,14.13
2023-05-13T04:41:41.688Z,12.90
2023-05-13T04:43:13.583Z,13.83
2023-05-13T04:44:53.451Z,14.50
2023-05-13T04:46:25.923Z,11.20
2023-05-13T04:47:58.565Z,10.63
2023-05-13T04:49:30.456Z,10.30
2023-05-13T04:51:02.686Z,9.47
2023-05-13T04:52:37.198Z,15.00
2023-05-13T04:54:09.305Z,14.80
2023-05-13T04:55:40.967Z,10.33
2023-05-13T04:57:12.675Z,11.53
2023-05-13T04:58:44.373Z,12.87
2023-05-13T05:00:18.477Z,9.33
2023-05-13T05:01:52.758Z,9.20
2023-05-13T05:03:24.940Z,10.50
2023-05-13T05:04:59.361Z,12.60
2023-05-13T05:06:32.462Z,12.00
2023-05-13T05:08:04.163Z,13.00
2023-05-13T05:09:35.856Z,9.40
2023-05-13T05:11:07.766Z,8.87
2023-05-13T05:12:41.329Z,8.73
2023-05-13T05:14:12.980Z,9.07
2023-05-13T05:15:44.679Z,7.67
2023-05-13T05:17:16.880Z,10.67
2023-05-13T05:18:48.684Z,10.03
2023-05-13T05:20:21.540Z,10.50
2023-05-13T05:21:54.488Z,8.77
2023-05-13T05:23:26.158Z,14.73
2023-05-13T05:24:58.704Z,12.37
2023-05-13T05:26:30.602Z,11.43
2023-05-13T05:28:04.929Z,14.17
2023-05-13T05:29:37.536Z,11.70
2023-05-13T05:31:10.049Z,9.50
2023-05-13T05:32:42.129Z,8.67
2023-05-13T05:34:14.033Z,8.83
2023-05-13T05:35:46.339Z,10.30
2023-05-13T05:37:21.038Z,10.30
2023-05-13T05:38:52.709Z,10.97
2023-05-13T05:40:25.378Z,10.20
2023-05-13T05:41:57.125Z,8.10
2023-05-13T05:43:28.900Z,8.93
2023-05-13T05:45:00.591Z,8.73
2023-05-13T05:46:33.250Z,14.70
2023-05-13T05:48:06.793Z,9.23
2023-05-13T05:49:38.532Z,14.17
2023-05-13T05:51:10.440Z,9.30
2023-05-13T05:52:42.093Z,8.37
2023-05-13T05:54:15.946Z,11.50
2023-05-13T05:55:47.608Z,11.20
2023-05-13T05:57:20.517Z,8.60
2023-05-13T05:58:53.078Z,13.40
2023-05-13T06:00:25.097Z,14.53
2023-05-13T06:01:56.748Z,14.77
2023-05-13T06:03:28.637Z,15.70
2023-05-13T06:05:00.557Z,9.50
2023-05-13T06:06:32.966Z,11.10
2023-05-13T06:08:05.127Z,10.90
2023-05-13T06:09:36.914Z,10.20
2023-05-13T06:11:08.639Z,6.67
2023-05-13T06:12:41.695Z,11.27
2023-05-13T06:14:16.079Z,10.10
2023-05-13T06:15:47.945Z,6.70
2023-05-13T06:17:19.747Z,16.83
2023-05-13T06:18:51.492Z,18.40
2023-05-13T06:20:24.027Z,9.03
2023-05-13T06:21:55.968Z,11.70
2023-05-13T06:23:27.622Z,6.80
2023-05-13T06:24:59.329Z,10.87
2023-05-13T06:26:31.833Z,9.17
2023-05-13T06:28:03.976Z,7.57
2023-05-13T06:29:35.716Z,7.27
2023-05-13T06:31:07.589Z,10.93
2023-05-13T06:32:40.988Z,7.30
2023-05-13T06:34:19.285Z,9.47
2023-05-13T06:35:51.093Z,9.43
2023-05-13T06:37:25.795Z,10.10
2023-05-13T06:38:57.586Z,7.37
2023-05-13T06:40:29.681Z,6.57
2023-05-13T06:42:01.357Z,9.37
2023-05-13T06:43:37.218Z,8.10
2023-05-13T06:45:23.016Z,7.47
2023-05-13T06:46:55.246Z,9.07
2023-05-13T06:48:27.490Z,9.47
2023-05-13T06:49:59.212Z,8.10
2023-05-13T06:51:32.661Z,11.00
2023-05-13T06:53:04.380Z,8.70
2023-05-13T06:54:36.043Z,11.90
2023-05-13T06:56:08.023Z,11.60
2023-05-13T06:57:43.077Z,7.73
2023-05-13T06:59:16.270Z,7.67
2023-05-13T07:00:48.039Z,10.10
2023-05-13T07:02:19.732Z,11.33
2023-05-13T07:03:51.458Z,9.70
2023-05-13T07:05:23.252Z,9.13
2023-05-13T07:06:55.177Z,8.30
2023-05-13T07:08:26.826Z,8.30
2023-05-13T07:09:58.568Z,11.23
2023-05-13T07:11:30.277Z,10.70
2023-05-13T07:13:02.768Z,25.73
2023-05-13T07:14:34.406Z,12.13
2023-05-13T07:16:06.212Z,9.27
2023-05-13T07:17:38.064Z,11.10
2023-05-13T07:19:09.856Z,7.43
2023-05-13T07:20:41.562Z,8.83
2023-05-13T07:22:13.217Z,8.10
2023-05-13T07:23:44.879Z,8.30
2023-05-13T07:25:19.570Z,10.90
2023-05-13T07:26:51.504Z,15.77
2023-05-13T07:28:23.222Z,27.63
2023-05-13T07:29:55.383Z,8.90
2023-05-13T07:31:27.250Z,8.77
2023-05-13T07:32:59.041Z,11.53
2023-05-13T07:34:30.841Z,10.87
2023-05-13T07:36:02.509Z,8.23
2023-05-13T07:37:34.187Z,12.50
2023-05-13T07:39:07.694Z,12.00
2023-05-13T07:40:39.496Z,10.37
2023-05-13T07:42:11.175Z,8.23
2023-05-13T07:43:42.876Z,8.53
2023-05-13T07:45:14.552Z,7.77
2023-05-13T07:46:46.308Z,9.23
2023-05-13T07:48:18.750Z,10.13
2023-05-13T07:49:50.709Z,10.20
2023-05-13T07:51:22.414Z,8.70
2023-05-13T07:52:54.066Z,10.70
2023-05-13T07:54:25.752Z,7.23
2023-05-13T07:55:57.539Z,9.73
2023-05-13T07:57:29.220Z,13.47
2023-05-13T07:59:01.044Z,13.10
2023-05-13T08:00:32.752Z,9.50
2023-05-13T08:02:04.637Z,13.30
2023-05-13T08:03:36.555Z,13.50
2023-05-13T08:05:08.966Z,10.30
2023-05-13T08:06:40.842Z,8.83
2023-05-13T08:08:12.589Z,7.77
2023-05-13T08:09:44.355Z,12.60
2023-05-13T08:11:16.073Z,11.00
2023-05-13T08:12:52.075Z,9.50
2023-05-13T08:14:23.858Z,8.67
2023-05-13T08:15:55.683Z,10.87
2023-05-13T08:17:27.569Z,12.10
2023-05-13T08:18:59.306Z,8.50
2023-05-13T08:20:31.149Z,7.10
2023-05-13T08:22:02.881Z,14.50
2023-05-13T08:23:44.732Z,9.50
2023-05-13T08:25:17.354Z,6.97
2023-05-13T08:26:49.064Z,9.33
2023-05-13T08:28:20.930Z,9.53
2023-05-13T08:29:52.710Z,7.57
2023-05-13T08:31:27.595Z,11.20
2023-05-13T08:32:59.386Z,16.07
2023-05-13T08:34:31.200Z,16.73
2023-05-13T08:36:03.649Z,8.20
2023-05-13T08:37:35.322Z,12.33
2023-05-13T08:39:07.508Z,12.57
2023-05-13T08:40:39.268Z,9.30
2023-05-13T08:42:11.655Z,9.80
2023-05-13T08:43:44.137Z,9.70
2023-05-13T08:45:17.360Z,10.70
2023-05-13T08:46:57.742Z,12.40
2023-05-13T08:48:30.966Z,7.10
2023-05-13T08:50:02.723Z,13.87
2023-05-13T08:51:34.465Z,6.73
2023-05-13T08:53:06.779Z,9.67
2023-05-13T08:54:39.311Z,10.33
2023-05-13T08:56:11.793Z,11.53
2023-05-13T08:57:43.434Z,7.93
2023-05-13T08:59:15.554Z,10.43
2023-05-13T09:00:48.960Z,11.33
2023-05-13T09:02:20.867Z,8.27
2023-05-13T09:04:02.429Z,8.43
2023-05-13T09:05:38.572Z,8.27
2023-05-13T09:07:11.477Z,10.03
2023-05-13T09:08:43.374Z,6.30
2023-05-13T09:10:17.455Z,9.13
2023-05-13T09:11:49.112Z,6.57
2023-05-13T09:13:21.945Z,7.03
2023-05-13T09:14:53.588Z,15.30
2023-05-13T09:16:26.811Z,14.23
2023-05-13T09:18:06.455Z,7.90
2023-05-13T09:19:38.288Z,6.00
2023-05-13T09:21:26.763Z,8.57
2023-05-13T09:23:07.211Z,6.43
2023-05-13T09:24:38.884Z,5.73
2023-05-13T09:26:27.962Z,6.23
2023-05-13T09:28:04.224Z,10.70
2023-05-13T09:29:36.134Z,6.37
2023-05-13T09:31:07.828Z,7.23
2023-05-13T09:32:40.499Z,7.53
2023-05-13T09:34:12.918Z,7.03
2023-05-13T09:35:53.841Z,6.60
2023-05-13T09:37:25.601Z,6.40
2023-05-13T09:38:58.042Z,6.40
2023-05-13T09:40:30.250Z,8.13
2023-05-13T09:42:08.046Z,12.70
2023-05-13T09:43:39.964Z,9.83
2023-05-13T09:45:16.185Z,7.70
2023-05-13T09:46:47.905Z,8.90
2023-05-13T09:48:22.078Z,5.97
2023-05-13T09:49:57.220Z,9.00
2023-05-13T09:51:32.234Z,6.73
2023-05-13T09:53:11.799Z,8.23
2023-05-13T09:54:44.572Z,11.90
2023-05-13T09:56:21.943Z,7.43
2023-05-13T09:57:53.708Z,9.20
2023-05-13T09:59:25.741Z,6.67
2023-05-13T10:00:58.369Z,6.07
2023-05-13T10:02:30.598Z,9.37
2023-05-13T10:04:03.098Z,12.80
2023-05-13T10:05:35.134Z,9.57
2023-05-13T10:07:08.568Z,7.97
2023-05-13T10:08:40.230Z,6.90
2023-05-13T10:10:12.331Z,5.43
2023-05-13T10:11:47.896Z,9.93
2023-05-13T10:13:24.433Z,6.60
2023-05-13T10:14:56.846Z,7.33
2023-05-13T10:16:29.940Z,7.30
2023-05-13T10:18:02.408Z,7.20
2023-05-13T10:19:34.879Z,10.57
2023-05-13T10:21:06.826Z,5.97
2023-05-13T10:22:39.963Z,6.60
2023-05-13T10:24:12.214Z,6.60
2023-05-13T10:25:44.604Z,8.07
2023-05-13T10:27:17.780Z,5.87
2023-05-13T10:28:50.036Z,6.37
2023-05-13T10:30:26.127Z,7.27
2023-05-13T10:31:58.800Z,8.70
2023-05-13T10:33:31.037Z,6.00
2023-05-13T10:35:17.319Z,5.10
2023-05-13T10:37:13.160Z,6.60
2023-05-13T10:39:04.771Z,7.47
2023-05-13T10:40:42.213Z,6.93
2023-05-13T10:42:35.616Z,6.60
2023-05-13T10:44:09.302Z,8.27
2023-05-13T10:45:48.715Z,7.30
2023-05-13T10:47:20.499Z,9.70
2023-05-13T10:48:58.205Z,7.97
2023-05-13T10:50:30.985Z,8.13
2023-05-13T10:52:11.568Z,8.80
2023-05-13T10:53:50.182Z,4.40
2023-05-13T10:55:21.980Z,4.30
2023-05-13T10:56:58.098Z,6.43
2023-05-13T10:58:34.246Z,14.83
2023-05-13T11:00:16.498Z,5.03
2023-05-13T11:01:49.113Z,5.20
2023-05-13T11:03:21.038Z,5.30
2023-05-13T11:05:01.968Z,6.27
2023-05-13T11:06:36.551Z,7.68
2023-05-13T11:08:08.438Z,6.70
2023-05-13T11:09:40.159Z,5.20
2023-05-13T11:11:21.281Z,9.40
2023-05-13T11:13:37.650Z,7.83
2023-05-13T11:15:21.994Z,6.03
2023-05-13T11:17:08.283Z,11.70
2023-05-13T11:18:40.031Z,14.13
2023-05-13T11:20:11.749Z,9.10
2023-05-13T11:21:50.513Z,3.40
2023-05-13T11:23:22.597Z,4.33
2023-05-13T11:25:08.551Z,10.17
2023-05-13T11:26:45.090Z,7.40
2023-05-13T11:28:18.465Z,9.20
2023-05-13T11:29:52.542Z,4.07
2023-05-13T11:31:25.772Z,6.40
2023-05-13T11:32:59.165Z,5.10
2023-05-13T11:34:33.525Z,4.90
2023-05-13T11:36:05.599Z,3.80
2023-05-13T11:37:43.472Z,6.57
2023-05-13T11:39:21.270Z,10.00
2023-05-13T11:40:56.730Z,6.50
2023-05-13T11:42:30.163Z,11.13
2023-05-13T11:44:03.263Z,11.53
2023-05-13T11:45:39.201Z,13.20
2023-05-13T11:47:11.093Z,3.97
2023-05-13T11:48:44.075Z,5.87
2023-05-13T11:50:24.111Z,8.30
2023-05-13T11:51:58.188Z,5.17
2023-05-13T11:53:29.940Z,4.87
2023-05-13T11:55:01.702Z,5.50
2023-05-13T11:56:33.404Z,6.30
2023-05-13T11:58:05.046Z,5.80
2023-05-13T11:59:47.607Z,9.37
2023-05-13T12:01:19.875Z,13.20
2023-05-13T12:02:52.100Z,7.90
2023-05-13T12:04:30.654Z,6.73
2023-05-13T12:06:03.478Z,3.10
2023-05-13T12:07:36.010Z,6.77
2023-05-13T12:09:09.691Z,4.73
2023-05-13T12:10:44.861Z,14.20
2023-05-13T12:12:17.534Z,6.90
2023-05-13T12:13:49.609Z,10.17
2023-05-13T12:15:22.851Z,5.50
2023-05-13T12:16:56.381Z,5.80
2023-05-13T12:18:28.071Z,7.40
2023-05-13T12:20:10.740Z,6.73
2023-05-13T12:21:42.886Z,4.03
2023-05-13T12:23:15.399Z,5.10
2023-05-13T12:24:47.339Z,4.47
2023-05-13T12:26:19.574Z,3.47
2023-05-13T12:27:55.021Z,4.60
2023-05-13T12:29:26.671Z,8.10
2023-05-13T12:31:03.542Z,6.40
2023-05-13T12:32:45.762Z,8.13
2023-05-13T12:34:32.487Z,3.93
2023-05-13T12:36:19.797Z,5.90
2023-05-13T12:38:05.329Z,4.63
2023-05-13T12:39:37.625Z,5.40
2023-05-13T12:41:15.495Z,6.27
2023-05-13T12:42:47.217Z,4.63
2023-05-13T12:44:18.942Z,7.43
2023-05-13T12:45:56.403Z,3.27
2023-05-13T12:47:28.044Z,6.10
2023-05-13T12:49:01.273Z,6.80
2023-05-13T12:50:33.100Z,10.27
2023-05-13T12:52:05.125Z,4.47
2023-05-13T12:53:36.764Z,7.80
2023-05-13T12:55:08.963Z,8.53
2023-05-13T12:56:40.621Z,8.30
2023-05-13T12:58:13.052Z,4.70
2023-05-13T12:59:48.124Z,6.60
2023-05-13T13:01:20.228Z,5.33
2023-05-13T13:02:53.718Z,9.80
2023-05-13T13:04:25.613Z,4.37
2023-05-13T13:05:58.071Z,9.30
2023-05-13T13:07:29.943Z,7.10
2023-05-13T13:09:01.678Z,12.33
2023-05-13T13:10:33.562Z,4.10
2023-05-13T13:12:05.680Z,4.50
2023-05-13T13:13:39.138Z,4.87
2023-05-13T13:15:11.879Z,3.63
2023-05-13T13:16:43.642Z,4.80
2023-05-13T13:18:15.432Z,3.43
2023-05-13T13:19:47.564Z,11.90
2023-05-13T13:21:19.223Z,3.80
2023-05-13T13:22:52.834Z,4.70
2023-05-13T13:24:24.522Z,4.00
2023-05-13T13:25:58.274Z,5.07
2023-05-13T13:27:30.004Z,8.60
2023-05-13T13:29:01.686Z,7.83
2023-05-13T13:30:33.332Z,7.07
2023-05-13T13:32:05.401Z,3.73
2023-05-13T13:33:37.137Z,4.90
2023-05-13T13:35:09.310Z,6.23
2023-05-13T13:36:40.961Z,3.33
2023-05-13T13:38:13.279Z,4.23
2023-05-13T13:39:44.908Z,7.80
2023-05-13T13:41:16.608Z,4.37
2023-05-13T13:42:48.422Z,7.33
2023-05-13T13:44:20.155Z,6.43
2023-05-13T13:45:51.895Z,7.23
2023-05-13T13:47:23.744Z,6.03
2023-05-13T13:48:55.413Z,10.07
2023-05-13T13:50:27.487Z,10.90
2023-05-13T13:51:59.215Z,7.70
2023-05-13T13:53:30.862Z,4.57
2023-05-13T13:55:02.536Z,8.23
2023-05-13T13:56:37.684Z,10.70
2023-05-13T13:58:09.389Z,5.23
2023-05-13T13:59:41.142Z,5.23
2023-05-13T14:01:12.840Z,4.30
2023-05-13T14:02:44.624Z,5.37
2023-05-13T14:04:23.408Z,8.43
2023-05-13T14:05:55.910Z,6.77
2023-05-13T14:07:28.109Z,4.90
2023-05-13T14:08:59.753Z,3.43
2023-05-13T14:10:31.558Z,8.97
2023-05-13T14:12:03.387Z,3.30
2023-05-13T14:13:35.403Z,4.07
2023-05-13T14:15:07.749Z,9.10
2023-05-13T14:16:39.823Z,6.80
2023-05-13T14:18:11.600Z,4.90
2023-05-13T14:19:43.302Z,9.40
2023-05-13T14:21:15.028Z,4.10
2023-05-13T14:22:46.721Z,7.17
2023-05-13T14:24:18.388Z,3.77
2023-05-13T14:25:50.106Z,4.00
2023-05-13T14:27:24.500Z,5.10
2023-05-13T14:28:56.763Z,7.53
2023-05-13T14:30:28.484Z,9.50
2023-05-13T14:32:01.901Z,6.70
2023-05-13T14:33:33.814Z,7.43
2023-05-13T14:35:06.000Z,6.70
2023-05-13T14:36:37.875Z,3.90
2023-05-13T14:38:09.657Z,4.17
2023-05-13T14:39:41.343Z,10.10
2023-05-13T14:41:19.492Z,6.17
2023-05-13T14:42:51.519Z,6.37
2023-05-13T14:44:23.230Z,5.30
2023-05-13T14:45:54.985Z,5.10
2023-05-13T14:47:26.727Z,4.00
2023-05-13T14:48:58.412Z,8.73
2023-05-13T14:50:30.088Z,5.43
2023-05-13T14:52:01.787Z,4.30
2023-05-13T14:53:33.536Z,5.57
2023-05-13T14:55:05.701Z,6.63
2023-05-13T14:56:37.765Z,2.80
2023-05-13T14:58:09.578Z,5.33
2023-05-13T14:59:41.315Z,6.27
2023-05-13T15:01:13.024Z,4.27
2023-05-13T15:02:44.790Z,4.30
2023-05-13T15:04:16.859Z,4.33
2023-05-13T15:05:50.040Z,9.50
2023-05-13T15:07:21.858Z,3.40
2023-05-13T15:08:53.624Z,3.60
2023-05-13T15:10:25.448Z,3.20
2023-05-13T15:11:57.093Z,7.30
2023-05-13T15:13:29.702Z,3.40
2023-05-13T15:15:01.397Z,4.97
2023-05-13T15:16:33.130Z,10.10
2023-05-13T15:18:05.821Z,4.70
2023-05-13T15:19:38.737Z,3.03
2023-05-13T15:21:10.457Z,3.20
2023-05-13T15:22:42.107Z,3.30
2023-05-13T15:24:13.759Z,7.00
2023-05-13T15:25:46.674Z,8.63
2023-05-13T15:27:19.389Z,3.37
2023-05-13T15:28:51.020Z,8.33
2023-05-13T15:30:23.098Z,4.93
2023-05-13T15:31:55.141Z,12.77
2023-05-13T15:33:26.843Z,6.33
2023-05-13T15:34:58.458Z,9.47
2023-05-13T15:36:30.194Z,3.10
2023-05-13T15:38:02.804Z,5.10
2023-05-13T15:39:34.479Z,10.73
2023-05-13T15:41:06.230Z,8.83
2023-05-13T15:42:37.869Z,5.73
2023-05-13T15:44:09.590Z,6.37
2023-05-13T15:45:41.425Z,3.10
2023-05-13T15:47:13.237Z,3.63
2023-05-13T15:48:45.008Z,4.40
2023-05-13T15:50:16.901Z,5.63
2023-05-13T15:51:48.680Z,5.30
2023-05-13T15:53:20.432Z,3.50
2023-05-13T15:54:52.110Z,3.10
2023-05-13T15:56:24.921Z,3.07
2023-05-13T15:57:56.556Z,3.37
2023-05-13T15:59:28.205Z,4.07
2023-05-13T16:00:59.894Z,4.37
2023-05-13T16:02:37.390Z,8.20
2023-05-13T16:04:09.507Z,9.17
2023-05-13T16:05:41.331Z,3.23
2023-05-13T16:07:13.102Z,2.80
2023-05-13T16:08:44.811Z,3.33
2023-05-13T16:10:16.519Z,4.10
2023-05-13T16:11:48.217Z,5.70
2023-05-13T16:13:20.383Z,8.40
2023-05-13T16:14:52.096Z,5.70
2023-05-13T16:16:23.923Z,6.07
2023-05-13T16:17:55.757Z,3.67
2023-05-13T16:19:27.725Z,6.53
2023-05-13T16:20:59.420Z,2.70
2023-05-13T16:22:33.728Z,3.30
2023-05-13T16:24:06.925Z,3.63
2023-05-13T16:25:39.588Z,3.70
2023-05-13T16:27:11.218Z,4.23
2023-05-13T16:28:42.902Z,5.40
2023-05-13T16:30:14.727Z,6.83
2023-05-13T16:31:46.421Z,4.10
2023-05-13T16:33:18.141Z,2.53
2023-05-13T16:34:50.254Z,3.53
2023-05-13T16:36:22.734Z,2.43
2023-05-13T16:37:54.538Z,3.63
2023-05-13T16:39:26.181Z,3.07
2023-05-13T16:40:58.232Z,6.90
2023-05-13T16:42:30.270Z,5.70
2023-05-13T16:44:02.062Z,4.43
2023-05-13T16:45:33.878Z,4.83
2023-05-13T16:47:11.180Z,3.73
2023-05-13T16:48:42.932Z,5.73
2023-05-13T16:50:14.765Z,3.27
2023-05-13T16:51:46.473Z,4.20
2023-05-13T16:53:18.186Z,3.60
2023-05-13T16:54:50.188Z,4.10
2023-05-13T16:56:22.092Z,4.77
2023-05-13T16:57:53.884Z,6.10
2023-05-13T16:59:27.160Z,3.70
2023-05-13T17:00:59.502Z,6.23
2023-05-13T17:02:31.528Z,3.13
2023-05-13T17:04:03.391Z,4.37
2023-05-13T17:05:36.573Z,4.47
2023-05-13T17:07:09.956Z,6.07
2023-05-13T17:08:41.781Z,3.80
2023-05-13T17:10:16.094Z,3.00
2023-05-13T17:11:47.847Z,3.23
2023-05-13T17:13:19.719Z,4.00
2023-05-13T17:14:51.692Z,5.87
2023-05-13T17:16:23.420Z,4.43
2023-05-13T17:17:55.137Z,10.37
2023-05-13T17:19:26.840Z,3.80
2023-05-13T17:20:59.904Z,3.40
2023-05-13T17:22:31.718Z,5.37
2023-05-13T17:24:04.185Z,6.20
2023-05-13T17:25:35.920Z,5.40
2023-05-13T17:27:08.485Z,6.20
2023-05-13T17:28:40.277Z,4.43
2023-05-13T17:30:12.426Z,6.30
2023-05-13T17:31:44.150Z,4.67
2023-05-13T17:33:15.888Z,4.67
2023-05-13T17:34:47.539Z,4.23
2023-05-13T17:36:19.964Z,7.70
2023-05-13T17:37:51.617Z,4.77
2023-05-13T17:39:23.263Z,3.70
2023-05-13T17:40:55.000Z,4.37
2023-05-13T17:42:26.706Z,4.20
2023-05-13T17:43:58.370Z,4.37
2023-05-13T17:45:30.467Z,4.07
2023-05-13T17:47:02.370Z,5.93
2023-05-13T17:48:34.200Z,7.43
2023-05-13T17:50:06.290Z,5.97
2023-05-13T17:51:37.958Z,6.80
2023-05-13T17:53:09.766Z,5.00
2023-05-13T17:54:41.458Z,4.17
2023-05-13T17:56:13.235Z,4.93
2023-05-13T17:57:44.878Z,6.60
2023-05-13T17:59:16.540Z,6.90
2023-05-13T18:00:48.825Z,4.90
2023-05-13T18:02:20.592Z,4.90
2023-05-13T18:03:52.423Z,9.20
2023-05-13T18:05:24.114Z,3.70
2023-05-13T18:06:56.090Z,3.80
2023-05-13T18:08:28.078Z,4.47
2023-05-13T18:09:59.784Z,3.83
2023-05-13T18:11:31.431Z,4.23
2023-05-13T18:13:03.178Z,4.57
2023-05-13T18:14:34.886Z,4.90
2023-05-13T18:16:08.978Z,4.30
2023-05-13T18:17:40.837Z,5.87
2023-05-13T18:19:12.990Z,5.60
2023-05-13T18:20:44.717Z,3.80
2023-05-13T18:22:16.393Z,4.83
2023-05-13T18:23:48.166Z,8.83
2023-05-13T18:25:19.879Z,7.27
2023-05-13T18:26:51.572Z,4.07
2023-05-13T18:28:23.412Z,4.17
2023-05-13T18:29:55.055Z,4.07
2023-05-13T18:31:26.810Z,3.80
2023-05-13T18:32:59.119Z,5.33
2023-05-13T18:34:31.163Z,3.50
2023-05-13T18:36:02.928Z,4.67
2023-05-13T18:37:35.008Z,7.00
2023-05-13T18:39:08.158Z,4.60
2023-05-13T18:40:39.852Z,4.10
2023-05-13T18:42:12.418Z,3.70
2023-05-13T18:43:44.100Z,4.50
2023-05-13T18:45:16.129Z,3.97
2023-05-13T18:46:47.795Z,4.13
2023-05-13T18:48:19.429Z,5.80
2023-05-13T18:49:51.068Z,6.00
2023-05-13T18:51:22.695Z,3.80
2023-05-13T18:52:54.367Z,5.90
2023-05-13T18:54:28.897Z,4.13
2023-05-13T18:56:00.567Z,4.50
2023-05-13T18:57:32.381Z,4.43
2023-05-13T18:59:04.192Z,5.43
2023-05-13T19:00:37.278Z,4.20
2023-05-13T19:02:09.196Z,4.53
2023-05-13T19:03:41.830Z,4.40
2023-05-13T19:05:13.523Z,5.57
2023-05-13T19:06:45.213Z,4.43
2023-05-13T19:08:16.993Z,6.47
2023-05-13T19:09:48.768Z,4.73
2023-05-13T19:11:21.556Z,5.10
2023-05-13T19:12:53.275Z,5.73
2023-05-13T19:14:24.932Z,6.10
2023-05-13T19:15:58.382Z,6.20
2023-05-13T19:17:30.795Z,6.20
2023-05-13T19:19:02.574Z,8.50
2023-05-13T19:20:34.397Z,6.53
2023-05-13T19:22:06.080Z,7.70
2023-05-13T19:23:39.112Z,5.53
2023-05-13T19:25:10.921Z,7.47
2023-05-13T19:26:42.727Z,6.40
2023-05-13T19:28:16.066Z,6.77
2023-05-13T19:29:47.873Z,11.73
2023-05-13T19:31:19.597Z,10.33
2023-05-13T19:32:53.896Z,5.87
2023-05-13T19:34:25.597Z,9.13
2023-05-13T19:35:57.305Z,5.10
2023-05-13T19:37:29.188Z,6.73
2023-05-13T19:39:00.942Z,7.20
2023-05-13T19:40:32.595Z,5.80
2023-05-13T19:42:04.501Z,6.97
2023-05-13T19:43:36.173Z,5.23
2023-05-13T19:45:09.464Z,6.70
2023-05-13T19:46:41.316Z,5.03
2023-05-13T19:48:13.676Z,6.03
2023-05-13T19:49:45.753Z,6.10
2023-05-13T19:51:18.009Z,6.13
2023-05-13T19:52:49.704Z,6.77
2023-05-13T19:54:21.354Z,7.10
2023-05-13T19:55:53.069Z,6.67
2023-05-13T19:57:24.686Z,5.97
2023-05-13T19:58:56.355Z,8.20
2023-05-13T20:00:27.996Z,6.80
2023-05-13T20:02:00.032Z,7.93
2023-05-13T20:03:31.890Z,6.40
2023-05-13T20:05:05.342Z,6.00
2023-05-13T20:06:37.042Z,7.40
2023-05-13T20:08:08.914Z,8.97
2023-05-13T20:09:40.603Z,7.50
2023-05-13T20:11:12.818Z,8.63
2023-05-13T20:12:45.259Z,8.83
2023-05-13T20:14:22.794Z,8.00
2023-05-13T20:15:54.424Z,14.17
2023-05-13T20:17:26.394Z,8.50
2023-05-13T20:18:58.229Z,8.57
2023-05-13T20:20:29.913Z,8.40
2023-05-13T20:22:01.643Z,6.50
2023-05-13T20:23:33.323Z,6.37